sensor_id;sensor_type;location;lat;lon;timestamp;temperature;humidity
20246;DHT22;10281;54.406;18.556;2022-07-23T00:02:17;18.00;99.90
20246;DHT22;10281;54.406;18.556;2022-07-23T00:04:44;17.90;99.90
20246;DHT22;10281;54.406;18.556;2022-07-23T00:07:10;17.90;99.90
20246;DHT22;10281;54.406;18.556;2022-07-23T00:09:37;17.90;99.90
20246;DHT22;10281;54.406;18.556;2022-07-23T00:12:04;17.90;99.90
20246;DHT22;10281;54.406;18.556;2022-07-23T00:14:31;17.90;99.90
20246;DHT22;10281;54.406;18.556;2022-07-23T00:16:58;17.80;99.90
20246;DHT22;10281;54.406;18.556;2022-07-23T00:19:24;17.70;99.90
20246;DHT22;10281;54.406;18.556;2022-07-23T00:21:51;17.70;99.90
20246;DHT22;10281;54.406;18.556;2022-07-23T00:24:18;17.70;99.90
20246;DHT22;10281;54.406;18.556;2022-07-23T00:26:44;17.60;99.90
20246;DHT22;10281;54.406;18.556;2022-07-23T00:29:11;17.60;99.90
20246;DHT22;10281;54.406;18.556;2022-07-23T00:31:37;17.60;99.90
20246;DHT22;10281;54.406;18.556;2022-07-23T00:34:04;17.70;99.90
20246;DHT22;10281;54.406;18.556;2022-07-23T00:36:31;17.60;99.90
20246;DHT22;10281;54.406;18.556;2022-07-23T00:38:57;17.60;99.90
20246;DHT22;10281;54.406;18.556;2022-07-23T00:41:24;17.70;99.90
20246;DHT22;10281;54.406;18.556;2022-07-23T00:43:51;17.60;99.90
20246;DHT22;10281;54.406;18.556;2022-07-23T00:46:21;17.70;99.90
20246;DHT22;10281;54.406;18.556;2022-07-23T00:48:48;17.70;99.90
20246;DHT22;10281;54.406;18.556;2022-07-23T00:51:16;17.70;99.90
20246;DHT22;10281;54.406;18.556;2022-07-23T00:53:44;17.70;99.90
20246;DHT22;10281;54.406;18.556;2022-07-23T00:56:11;17.70;99.90
20246;DHT22;10281;54.406;18.556;2022-07-23T00:58:39;17.70;99.90
20246;DHT22;10281;54.406;18.556;2022-07-23T01:01:07;17.70;99.90
20246;DHT22;10281;54.406;18.556;2022-07-23T01:03:35;17.70;99.90
20246;DHT22;10281;54.406;18.556;2022-07-23T01:06:01;17.70;99.90
20246;DHT22;10281;54.406;18.556;2022-07-23T01:08:28;17.80;99.90
20246;DHT22;10281;54.406;18.556;2022-07-23T01:10:56;17.70;99.90
20246;DHT22;10281;54.406;18.556;2022-07-23T01:13:22;17.70;99.90
20246;DHT22;10281;54.406;18.556;2022-07-23T01:15:49;17.80;99.90
20246;DHT22;10281;54.406;18.556;2022-07-23T01:18:16;17.70;99.90
20246;DHT22;10281;54.406;18.556;2022-07-23T01:20:42;17.70;99.90
20246;DHT22;10281;54.406;18.556;2022-07-23T01:23:09;17.70;99.90
20246;DHT22;10281;54.406;18.556;2022-07-23T01:25:35;17.70;99.90
20246;DHT22;10281;54.406;18.556;2022-07-23T01:28:02;17.70;99.90
20246;DHT22;10281;54.406;18.556;2022-07-23T01:30:29;17.70;99.90
20246;DHT22;10281;54.406;18.556;2022-07-23T01:32:55;17.70;99.90
20246;DHT22;10281;54.406;18.556;2022-07-23T01:35:22;17.70;99.90
20246;DHT22;10281;54.406;18.556;2022-07-23T01:37:49;17.80;99.90
20246;DHT22;10281;54.406;18.556;2022-07-23T01:40:15;17.80;99.90
20246;DHT22;10281;54.406;18.556;2022-07-23T01:42:42;17.80;99.90
20246;DHT22;10281;54.406;18.556;2022-07-23T01:45:09;17.70;99.90
20246;DHT22;10281;54.406;18.556;2022-07-23T01:47:36;17.70;99.90
20246;DHT22;10281;54.406;18.556;2022-07-23T01:50:02;17.70;99.90
20246;DHT22;10281;54.406;18.556;2022-07-23T01:52:29;17.70;99.90
20246;DHT22;10281;54.406;18.556;2022-07-23T01:54:56;17.70;99.90
20246;DHT22;10281;54.406;18.556;2022-07-23T01:57:23;17.70;99.90
20246;DHT22;10281;54.406;18.556;2022-07-23T01:59:50;17.70;99.90
20246;DHT22;10281;54.406;18.556;2022-07-23T02:02:16;17.60;99.90
20246;DHT22;10281;54.406;18.556;2022-07-23T02:04:43;17.60;99.90
20246;DHT22;10281;54.406;18.556;2022-07-23T02:07:09;17.50;99.90
20246;DHT22;10281;54.406;18.556;2022-07-23T02:09:36;17.50;99.90
20246;DHT22;10281;54.406;18.556;2022-07-23T02:12:03;17.50;99.90
20246;DHT22;10281;54.406;18.556;2022-07-23T02:14:30;17.50;99.90
20246;DHT22;10281;54.406;18.556;2022-07-23T02:16:56;17.50;99.90
20246;DHT22;10281;54.406;18.556;2022-07-23T02:19:23;17.40;99.90
20246;DHT22;10281;54.406;18.556;2022-07-23T02:21:49;17.40;99.90
20246;DHT22;10281;54.406;18.556;2022-07-23T02:24:16;17.40;99.90
20246;DHT22;10281;54.406;18.556;2022-07-23T02:26:43;17.30;99.90
20246;DHT22;10281;54.406;18.556;2022-07-23T02:29:10;17.30;99.90
20246;DHT22;10281;54.406;18.556;2022-07-23T02:31:36;17.20;99.90
20246;DHT22;10281;54.406;18.556;2022-07-23T02:34:03;17.20;99.90
20246;DHT22;10281;54.406;18.556;2022-07-23T02:36:30;17.20;99.90
20246;DHT22;10281;54.406;18.556;2022-07-23T02:38:56;17.20;99.90
20246;DHT22;10281;54.406;18.556;2022-07-23T02:41:24;17.20;99.90
20246;DHT22;10281;54.406;18.556;2022-07-23T02:43:50;17.20;99.90
20246;DHT22;10281;54.406;18.556;2022-07-23T02:46:17;17.20;99.90
20246;DHT22;10281;54.406;18.556;2022-07-23T02:48:44;17.20;99.90
20246;DHT22;10281;54.406;18.556;2022-07-23T02:51:11;17.20;99.90
20246;DHT22;10281;54.406;18.556;2022-07-23T02:53:38;17.20;99.90
20246;DHT22;10281;54.406;18.556;2022-07-23T02:56:04;17.20;99.90
20246;DHT22;10281;54.406;18.556;2022-07-23T02:58:31;17.20;99.90
20246;DHT22;10281;54.406;18.556;2022-07-23T03:00:58;17.20;99.90
20246;DHT22;10281;54.406;18.556;2022-07-23T03:03:24;17.20;99.90
20246;DHT22;10281;54.406;18.556;2022-07-23T03:05:51;17.20;99.90
20246;DHT22;10281;54.406;18.556;2022-07-23T03:08:18;17.30;99.90
20246;DHT22;10281;54.406;18.556;2022-07-23T03:10:44;17.30;99.90
20246;DHT22;10281;54.406;18.556;2022-07-23T03:13:11;17.30;99.90
20246;DHT22;10281;54.406;18.556;2022-07-23T03:15:38;17.40;99.90
20246;DHT22;10281;54.406;18.556;2022-07-23T03:18:04;17.30;99.90
20246;DHT22;10281;54.406;18.556;2022-07-23T03:20:31;17.30;99.90
20246;DHT22;10281;54.406;18.556;2022-07-23T03:22:58;17.30;99.90
20246;DHT22;10281;54.406;18.556;2022-07-23T03:25:24;17.30;99.90
20246;DHT22;10281;54.406;18.556;2022-07-23T03:27:51;17.30;99.90
20246;DHT22;10281;54.406;18.556;2022-07-23T03:30:17;17.40;99.90
20246;DHT22;10281;54.406;18.556;2022-07-23T03:32:44;17.40;99.90
20246;DHT22;10281;54.406;18.556;2022-07-23T03:35:11;17.30;99.90
20246;DHT22;10281;54.406;18.556;2022-07-23T03:37:37;17.40;99.90
20246;DHT22;10281;54.406;18.556;2022-07-23T03:40:05;17.40;99.90
20246;DHT22;10281;54.406;18.556;2022-07-23T03:42:32;17.40;99.90
20246;DHT22;10281;54.406;18.556;2022-07-23T03:44:58;17.40;99.90
20246;DHT22;10281;54.406;18.556;2022-07-23T03:47:25;17.40;99.90
20246;DHT22;10281;54.406;18.556;2022-07-23T03:49:52;17.40;99.90
20246;DHT22;10281;54.406;18.556;2022-07-23T03:52:18;17.50;99.90
20246;DHT22;10281;54.406;18.556;2022-07-23T03:54:45;17.50;99.90
20246;DHT22;10281;54.406;18.556;2022-07-23T03:57:12;17.50;99.90
20246;DHT22;10281;54.406;18.556;2022-07-23T03:59:38;17.50;99.90
20246;DHT22;10281;54.406;18.556;2022-07-23T04:02:05;17.50;99.90
20246;DHT22;10281;54.406;18.556;2022-07-23T04:04:33;17.50;99.90
20246;DHT22;10281;54.406;18.556;2022-07-23T04:07:00;17.50;99.90
20246;DHT22;10281;54.406;18.556;2022-07-23T04:09:27;17.60;99.90
20246;DHT22;10281;54.406;18.556;2022-07-23T04:11:53;17.60;99.90
20246;DHT22;10281;54.406;18.556;2022-07-23T04:14:20;17.70;99.90
20246;DHT22;10281;54.406;18.556;2022-07-23T04:16:47;17.80;99.90
20246;DHT22;10281;54.406;18.556;2022-07-23T04:19:13;17.80;99.90
20246;DHT22;10281;54.406;18.556;2022-07-23T04:21:40;17.80;99.90
20246;DHT22;10281;54.406;18.556;2022-07-23T04:24:06;17.90;99.90
20246;DHT22;10281;54.406;18.556;2022-07-23T04:26:33;17.90;99.90
20246;DHT22;10281;54.406;18.556;2022-07-23T04:29:00;18.00;99.90
20246;DHT22;10281;54.406;18.556;2022-07-23T04:31:26;18.00;99.90
20246;DHT22;10281;54.406;18.556;2022-07-23T04:33:53;18.10;99.90
20246;DHT22;10281;54.406;18.556;2022-07-23T04:36:19;18.10;99.90
20246;DHT22;10281;54.406;18.556;2022-07-23T04:38:46;18.10;99.90
20246;DHT22;10281;54.406;18.556;2022-07-23T04:41:13;18.20;99.90
20246;DHT22;10281;54.406;18.556;2022-07-23T04:43:39;18.20;99.90
20246;DHT22;10281;54.406;18.556;2022-07-23T04:46:06;18.30;99.90
20246;DHT22;10281;54.406;18.556;2022-07-23T04:48:33;18.40;99.90
20246;DHT22;10281;54.406;18.556;2022-07-23T04:50:59;18.40;99.90
20246;DHT22;10281;54.406;18.556;2022-07-23T04:53:26;18.50;99.90
20246;DHT22;10281;54.406;18.556;2022-07-23T04:55:52;18.50;99.90
20246;DHT22;10281;54.406;18.556;2022-07-23T04:58:19;18.50;99.90
20246;DHT22;10281;54.406;18.556;2022-07-23T05:00:46;18.70;99.90
20246;DHT22;10281;54.406;18.556;2022-07-23T05:03:13;18.80;99.90
20246;DHT22;10281;54.406;18.556;2022-07-23T05:05:40;18.90;99.90
20246;DHT22;10281;54.406;18.556;2022-07-23T05:08:06;19.00;99.90
20246;DHT22;10281;54.406;18.556;2022-07-23T05:10:33;19.00;99.90
20246;DHT22;10281;54.406;18.556;2022-07-23T05:12:59;19.00;99.90
20246;DHT22;10281;54.406;18.556;2022-07-23T05:15:26;19.10;99.90
20246;DHT22;10281;54.406;18.556;2022-07-23T05:17:53;19.10;99.90
20246;DHT22;10281;54.406;18.556;2022-07-23T05:20:20;19.20;99.90
20246;DHT22;10281;54.406;18.556;2022-07-23T05:22:46;19.20;99.90
20246;DHT22;10281;54.406;18.556;2022-07-23T05:25:13;19.30;99.90
20246;DHT22;10281;54.406;18.556;2022-07-23T05:27:39;19.40;99.90
20246;DHT22;10281;54.406;18.556;2022-07-23T05:30:07;19.40;99.90
20246;DHT22;10281;54.406;18.556;2022-07-23T05:32:33;19.40;99.90
20246;DHT22;10281;54.406;18.556;2022-07-23T05:35:03;19.40;99.90
20246;DHT22;10281;54.406;18.556;2022-07-23T05:37:30;19.50;99.90
20246;DHT22;10281;54.406;18.556;2022-07-23T05:40:04;19.40;99.90
20246;DHT22;10281;54.406;18.556;2022-07-23T05:42:36;19.40;99.90
20246;DHT22;10281;54.406;18.556;2022-07-23T05:45:03;19.50;99.90
20246;DHT22;10281;54.406;18.556;2022-07-23T05:50:04;19.60;99.90
20246;DHT22;10281;54.406;18.556;2022-07-23T05:52:31;19.70;99.90
20246;DHT22;10281;54.406;18.556;2022-07-23T05:54:57;19.70;99.90
20246;DHT22;10281;54.406;18.556;2022-07-23T05:57:24;19.80;99.90
20246;DHT22;10281;54.406;18.556;2022-07-23T05:59:51;19.70;99.90
20246;DHT22;10281;54.406;18.556;2022-07-23T06:02:18;19.80;99.90
20246;DHT22;10281;54.406;18.556;2022-07-23T06:04:44;19.80;99.90
20246;DHT22;10281;54.406;18.556;2022-07-23T06:07:12;19.90;99.90
20246;DHT22;10281;54.406;18.556;2022-07-23T06:09:38;19.90;99.90
20246;DHT22;10281;54.406;18.556;2022-07-23T06:12:05;19.90;99.90
20246;DHT22;10281;54.406;18.556;2022-07-23T06:14:32;20.00;99.90
20246;DHT22;10281;54.406;18.556;2022-07-23T06:16:59;20.10;99.90
20246;DHT22;10281;54.406;18.556;2022-07-23T06:19:25;20.10;99.90
20246;DHT22;10281;54.406;18.556;2022-07-23T06:21:52;20.20;99.90
20246;DHT22;10281;54.406;18.556;2022-07-23T06:24:19;20.30;99.90
20246;DHT22;10281;54.406;18.556;2022-07-23T06:26:45;20.30;99.90
20246;DHT22;10281;54.406;18.556;2022-07-23T06:29:12;20.40;99.90
20246;DHT22;10281;54.406;18.556;2022-07-23T06:31:39;20.50;99.90
20246;DHT22;10281;54.406;18.556;2022-07-23T06:34:06;20.50;99.90
20246;DHT22;10281;54.406;18.556;2022-07-23T06:36:32;20.60;99.90
20246;DHT22;10281;54.406;18.556;2022-07-23T06:38:59;20.70;99.90
20246;DHT22;10281;54.406;18.556;2022-07-23T06:41:26;20.70;99.90
20246;DHT22;10281;54.406;18.556;2022-07-23T06:43:52;20.90;99.90
20246;DHT22;10281;54.406;18.556;2022-07-23T06:46:19;21.00;99.90
20246;DHT22;10281;54.406;18.556;2022-07-23T06:48:47;21.10;99.90
20246;DHT22;10281;54.406;18.556;2022-07-23T06:51:13;21.20;99.90
20246;DHT22;10281;54.406;18.556;2022-07-23T06:53:40;21.10;99.90
20246;DHT22;10281;54.406;18.556;2022-07-23T06:56:08;21.00;99.90
20246;DHT22;10281;54.406;18.556;2022-07-23T06:58:34;21.10;99.90
20246;DHT22;10281;54.406;18.556;2022-07-23T07:01:01;21.20;99.90
20246;DHT22;10281;54.406;18.556;2022-07-23T07:03:27;21.10;99.90
20246;DHT22;10281;54.406;18.556;2022-07-23T07:05:54;21.10;99.90
20246;DHT22;10281;54.406;18.556;2022-07-23T07:08:23;21.20;99.90
20246;DHT22;10281;54.406;18.556;2022-07-23T07:10:50;21.30;99.90
20246;DHT22;10281;54.406;18.556;2022-07-23T07:13:16;21.40;99.90
20246;DHT22;10281;54.406;18.556;2022-07-23T07:15:43;21.50;99.90
20246;DHT22;10281;54.406;18.556;2022-07-23T07:18:10;21.60;99.90
20246;DHT22;10281;54.406;18.556;2022-07-23T07:20:37;21.70;99.90
20246;DHT22;10281;54.406;18.556;2022-07-23T07:23:03;21.80;99.90
20246;DHT22;10281;54.406;18.556;2022-07-23T07:25:31;21.80;99.90
20246;DHT22;10281;54.406;18.556;2022-07-23T07:27:57;21.70;99.90
20246;DHT22;10281;54.406;18.556;2022-07-23T07:30:24;21.70;99.90
20246;DHT22;10281;54.406;18.556;2022-07-23T07:32:50;21.80;99.90
20246;DHT22;10281;54.406;18.556;2022-07-23T07:35:17;21.80;99.90
20246;DHT22;10281;54.406;18.556;2022-07-23T07:37:44;21.90;99.90
20246;DHT22;10281;54.406;18.556;2022-07-23T07:40:10;22.00;99.90
20246;DHT22;10281;54.406;18.556;2022-07-23T07:42:46;22.00;99.90
20246;DHT22;10281;54.406;18.556;2022-07-23T07:45:12;22.10;99.90
20246;DHT22;10281;54.406;18.556;2022-07-23T07:47:39;22.20;99.90
20246;DHT22;10281;54.406;18.556;2022-07-23T07:50:06;22.20;99.90
20246;DHT22;10281;54.406;18.556;2022-07-23T07:52:34;22.30;99.90
20246;DHT22;10281;54.406;18.556;2022-07-23T07:55:04;22.30;99.90
20246;DHT22;10281;54.406;18.556;2022-07-23T07:57:31;22.30;99.90
20246;DHT22;10281;54.406;18.556;2022-07-23T07:59:57;22.40;99.90
20246;DHT22;10281;54.406;18.556;2022-07-23T08:02:24;22.40;99.90
20246;DHT22;10281;54.406;18.556;2022-07-23T08:04:51;22.50;99.90
20246;DHT22;10281;54.406;18.556;2022-07-23T08:07:19;22.40;99.90
20246;DHT22;10281;54.406;18.556;2022-07-23T08:09:45;22.50;99.90
20246;DHT22;10281;54.406;18.556;2022-07-23T08:12:12;22.50;99.90
20246;DHT22;10281;54.406;18.556;2022-07-23T08:14:39;22.60;99.90
20246;DHT22;10281;54.406;18.556;2022-07-23T08:17:05;22.60;99.90
20246;DHT22;10281;54.406;18.556;2022-07-23T08:19:32;22.70;99.90
20246;DHT22;10281;54.406;18.556;2022-07-23T08:21:58;22.70;99.90
20246;DHT22;10281;54.406;18.556;2022-07-23T08:24:25;22.70;99.90
20246;DHT22;10281;54.406;18.556;2022-07-23T08:26:52;22.70;99.90
20246;DHT22;10281;54.406;18.556;2022-07-23T08:29:18;22.70;99.90
20246;DHT22;10281;54.406;18.556;2022-07-23T08:31:45;22.70;99.90
20246;DHT22;10281;54.406;18.556;2022-07-23T08:34:11;22.70;99.90
20246;DHT22;10281;54.406;18.556;2022-07-23T08:36:38;22.70;99.90
20246;DHT22;10281;54.406;18.556;2022-07-23T08:39:05;22.80;99.90
20246;DHT22;10281;54.406;18.556;2022-07-23T08:41:32;22.70;99.90
20246;DHT22;10281;54.406;18.556;2022-07-23T08:44:00;22.80;99.90
20246;DHT22;10281;54.406;18.556;2022-07-23T08:46:27;22.80;99.90
20246;DHT22;10281;54.406;18.556;2022-07-23T08:48:54;23.00;99.90
20246;DHT22;10281;54.406;18.556;2022-07-23T08:51:25;23.10;99.90
20246;DHT22;10281;54.406;18.556;2022-07-23T08:53:52;23.20;99.90
20246;DHT22;10281;54.406;18.556;2022-07-23T08:56:19;23.30;99.90
20246;DHT22;10281;54.406;18.556;2022-07-23T08:58:45;23.40;99.90
20246;DHT22;10281;54.406;18.556;2022-07-23T09:01:12;23.40;99.90
20246;DHT22;10281;54.406;18.556;2022-07-23T09:03:38;23.40;99.90
20246;DHT22;10281;54.406;18.556;2022-07-23T09:06:05;23.50;99.90
20246;DHT22;10281;54.406;18.556;2022-07-23T09:08:40;23.50;99.90
20246;DHT22;10281;54.406;18.556;2022-07-23T09:11:10;23.60;99.90
20246;DHT22;10281;54.406;18.556;2022-07-23T09:13:39;23.70;99.90
20246;DHT22;10281;54.406;18.556;2022-07-23T09:16:16;23.70;99.90
20246;DHT22;10281;54.406;18.556;2022-07-23T09:18:50;23.70;99.90
20246;DHT22;10281;54.406;18.556;2022-07-23T09:21:21;23.80;99.90
20246;DHT22;10281;54.406;18.556;2022-07-23T09:23:55;23.90;99.90
20246;DHT22;10281;54.406;18.556;2022-07-23T09:26:38;23.90;99.90
20246;DHT22;10281;54.406;18.556;2022-07-23T09:29:11;24.10;99.90
20246;DHT22;10281;54.406;18.556;2022-07-23T09:31:45;24.20;99.90
20246;DHT22;10281;54.406;18.556;2022-07-23T09:34:18;24.20;99.90
20246;DHT22;10281;54.406;18.556;2022-07-23T09:36:45;24.20;99.90
20246;DHT22;10281;54.406;18.556;2022-07-23T09:39:13;24.10;99.90
20246;DHT22;10281;54.406;18.556;2022-07-23T09:41:42;24.00;99.90
20246;DHT22;10281;54.406;18.556;2022-07-23T09:44:13;24.00;99.90
20246;DHT22;10281;54.406;18.556;2022-07-23T09:46:40;23.90;99.90
20246;DHT22;10281;54.406;18.556;2022-07-23T09:49:15;23.80;99.90
20246;DHT22;10281;54.406;18.556;2022-07-23T09:51:49;23.70;99.90
20246;DHT22;10281;54.406;18.556;2022-07-23T09:54:24;23.70;99.90
20246;DHT22;10281;54.406;18.556;2022-07-23T09:56:53;23.70;99.90
20246;DHT22;10281;54.406;18.556;2022-07-23T09:59:23;23.70;99.90
20246;DHT22;10281;54.406;18.556;2022-07-23T10:01:53;23.70;99.90
20246;DHT22;10281;54.406;18.556;2022-07-23T10:04:22;23.50;99.90
20246;DHT22;10281;54.406;18.556;2022-07-23T10:06:52;23.50;99.90
20246;DHT22;10281;54.406;18.556;2022-07-23T10:09:25;23.60;99.90
20246;DHT22;10281;54.406;18.556;2022-07-23T10:11:54;23.60;99.90
20246;DHT22;10281;54.406;18.556;2022-07-23T10:14:23;23.70;99.90
20246;DHT22;10281;54.406;18.556;2022-07-23T10:16:50;23.50;99.90
20246;DHT22;10281;54.406;18.556;2022-07-23T10:19:18;23.50;99.90
20246;DHT22;10281;54.406;18.556;2022-07-23T10:21:49;23.30;99.90
20246;DHT22;10281;54.406;18.556;2022-07-23T10:26:58;23.20;99.90
20246;DHT22;10281;54.406;18.556;2022-07-23T10:29:45;23.00;99.90
20246;DHT22;10281;54.406;18.556;2022-07-23T10:32:20;23.00;99.90
20246;DHT22;10281;54.406;18.556;2022-07-23T10:34:52;23.00;99.90
20246;DHT22;10281;54.406;18.556;2022-07-23T10:37:37;23.00;99.90
20246;DHT22;10281;54.406;18.556;2022-07-23T10:40:15;23.00;99.90
20246;DHT22;10281;54.406;18.556;2022-07-23T10:42:45;23.10;99.90
20246;DHT22;10281;54.406;18.556;2022-07-23T10:47:51;22.90;99.90
20246;DHT22;10281;54.406;18.556;2022-07-23T10:50:22;22.90;99.90
20246;DHT22;10281;54.406;18.556;2022-07-23T10:53:11;23.00;99.90
20246;DHT22;10281;54.406;18.556;2022-07-23T10:55:41;23.00;99.90
20246;DHT22;10281;54.406;18.556;2022-07-23T10:58:08;23.10;99.90
20246;DHT22;10281;54.406;18.556;2022-07-23T11:00:36;23.20;99.90
20246;DHT22;10281;54.406;18.556;2022-07-23T11:03:05;23.20;99.90
20246;DHT22;10281;54.406;18.556;2022-07-23T11:05:42;23.20;99.90
20246;DHT22;10281;54.406;18.556;2022-07-23T11:08:13;23.10;99.90
20246;DHT22;10281;54.406;18.556;2022-07-23T11:10:44;23.10;99.90
20246;DHT22;10281;54.406;18.556;2022-07-23T11:13:29;23.00;99.90
20246;DHT22;10281;54.406;18.556;2022-07-23T11:16:06;22.90;99.90
20246;DHT22;10281;54.406;18.556;2022-07-23T11:18:57;22.90;99.90
20246;DHT22;10281;54.406;18.556;2022-07-23T11:24:13;22.70;99.90
20246;DHT22;10281;54.406;18.556;2022-07-23T11:26:45;22.60;99.90
20246;DHT22;10281;54.406;18.556;2022-07-23T11:31:55;22.60;99.90
20246;DHT22;10281;54.406;18.556;2022-07-23T11:34:34;22.60;99.90
20246;DHT22;10281;54.406;18.556;2022-07-23T11:37:04;22.50;99.90
20246;DHT22;10281;54.406;18.556;2022-07-23T11:39:32;22.40;99.90
20246;DHT22;10281;54.406;18.556;2022-07-23T11:42:00;22.30;99.90
20246;DHT22;10281;54.406;18.556;2022-07-23T11:44:27;22.30;99.90
20246;DHT22;10281;54.406;18.556;2022-07-23T11:46:59;22.10;99.90
20246;DHT22;10281;54.406;18.556;2022-07-23T11:49:27;22.00;99.90
20246;DHT22;10281;54.406;18.556;2022-07-23T11:52:08;21.90;99.90
20246;DHT22;10281;54.406;18.556;2022-07-23T11:54:37;21.90;99.90
20246;DHT22;10281;54.406;18.556;2022-07-23T11:57:05;21.90;99.90
20246;DHT22;10281;54.406;18.556;2022-07-23T11:59:33;21.90;99.90
20246;DHT22;10281;54.406;18.556;2022-07-23T12:02:02;22.00;99.90
20246;DHT22;10281;54.406;18.556;2022-07-23T12:04:44;22.00;99.90
20246;DHT22;10281;54.406;18.556;2022-07-23T12:07:26;22.00;99.90
20246;DHT22;10281;54.406;18.556;2022-07-23T12:09:54;22.00;99.90
20246;DHT22;10281;54.406;18.556;2022-07-23T12:12:21;22.00;99.90
20246;DHT22;10281;54.406;18.556;2022-07-23T12:14:50;22.00;99.90
20246;DHT22;10281;54.406;18.556;2022-07-23T12:17:17;22.00;99.90
20246;DHT22;10281;54.406;18.556;2022-07-23T12:19:44;21.90;99.90
20246;DHT22;10281;54.406;18.556;2022-07-23T12:22:12;21.90;99.90
20246;DHT22;10281;54.406;18.556;2022-07-23T12:24:52;21.80;99.90
20246;DHT22;10281;54.406;18.556;2022-07-23T12:27:21;21.80;99.90
20246;DHT22;10281;54.406;18.556;2022-07-23T12:29:48;21.70;99.90
20246;DHT22;10281;54.406;18.556;2022-07-23T12:32:18;21.80;99.90
20246;DHT22;10281;54.406;18.556;2022-07-23T12:34:46;21.70;99.90
20246;DHT22;10281;54.406;18.556;2022-07-23T12:37:25;21.60;99.90
20246;DHT22;10281;54.406;18.556;2022-07-23T12:39:52;21.70;99.90
20246;DHT22;10281;54.406;18.556;2022-07-23T12:42:18;21.70;99.90
20246;DHT22;10281;54.406;18.556;2022-07-23T12:47:23;21.90;99.90
20246;DHT22;10281;54.406;18.556;2022-07-23T12:49:50;22.00;99.90
20246;DHT22;10281;54.406;18.556;2022-07-23T12:52:17;22.20;99.90
20246;DHT22;10281;54.406;18.556;2022-07-23T12:54:43;22.30;99.90
20246;DHT22;10281;54.406;18.556;2022-07-23T12:57:10;21.90;99.90
20246;DHT22;10281;54.406;18.556;2022-07-23T12:59:36;21.80;99.90
20246;DHT22;10281;54.406;18.556;2022-07-23T13:02:04;21.90;99.90
20246;DHT22;10281;54.406;18.556;2022-07-23T13:04:32;22.00;99.90
20246;DHT22;10281;54.406;18.556;2022-07-23T13:07:00;22.20;99.90
20246;DHT22;10281;54.406;18.556;2022-07-23T13:09:30;22.30;99.90
20246;DHT22;10281;54.406;18.556;2022-07-23T13:11:57;22.50;99.90
20246;DHT22;10281;54.406;18.556;2022-07-23T13:14:25;22.70;99.90
20246;DHT22;10281;54.406;18.556;2022-07-23T13:16:53;22.80;99.90
20246;DHT22;10281;54.406;18.556;2022-07-23T13:19:20;22.90;99.90
20246;DHT22;10281;54.406;18.556;2022-07-23T13:21:49;23.10;99.90
20246;DHT22;10281;54.406;18.556;2022-07-23T13:24:16;23.20;99.90
20246;DHT22;10281;54.406;18.556;2022-07-23T13:26:43;23.40;99.90
20246;DHT22;10281;54.406;18.556;2022-07-23T13:29:10;23.50;99.90
20246;DHT22;10281;54.406;18.556;2022-07-23T13:31:37;23.60;99.90
20246;DHT22;10281;54.406;18.556;2022-07-23T13:34:05;23.60;99.90
20246;DHT22;10281;54.406;18.556;2022-07-23T13:36:31;23.70;99.90
20246;DHT22;10281;54.406;18.556;2022-07-23T13:38:58;23.80;99.90
20246;DHT22;10281;54.406;18.556;2022-07-23T13:41:25;23.80;99.90
20246;DHT22;10281;54.406;18.556;2022-07-23T13:43:51;23.70;99.90
20246;DHT22;10281;54.406;18.556;2022-07-23T13:46:18;23.80;99.90
20246;DHT22;10281;54.406;18.556;2022-07-23T13:48:45;23.70;99.90
20246;DHT22;10281;54.406;18.556;2022-07-23T13:51:12;23.70;99.90
20246;DHT22;10281;54.406;18.556;2022-07-23T13:53:38;23.70;99.90
20246;DHT22;10281;54.406;18.556;2022-07-23T13:56:05;23.70;99.90
20246;DHT22;10281;54.406;18.556;2022-07-23T13:58:32;23.80;99.90
20246;DHT22;10281;54.406;18.556;2022-07-23T14:00:59;23.80;99.90
20246;DHT22;10281;54.406;18.556;2022-07-23T14:03:25;23.60;99.90
20246;DHT22;10281;54.406;18.556;2022-07-23T14:05:52;23.60;99.90
20246;DHT22;10281;54.406;18.556;2022-07-23T14:08:19;23.30;99.90
20246;DHT22;10281;54.406;18.556;2022-07-23T14:10:46;23.30;99.90
20246;DHT22;10281;54.406;18.556;2022-07-23T14:13:13;23.20;99.90
20246;DHT22;10281;54.406;18.556;2022-07-23T14:15:39;23.20;99.90
20246;DHT22;10281;54.406;18.556;2022-07-23T14:18:06;23.30;99.90
20246;DHT22;10281;54.406;18.556;2022-07-23T14:20:33;23.60;99.90
20246;DHT22;10281;54.406;18.556;2022-07-23T14:42:38;23.50;99.90
20246;DHT22;10281;54.406;18.556;2022-07-23T14:45:05;23.40;99.90
20246;DHT22;10281;54.406;18.556;2022-07-23T15:24:12;23.40;99.90
20246;DHT22;10281;54.406;18.556;2022-07-23T15:26:39;22.90;99.90
20246;DHT22;10281;54.406;18.556;2022-07-23T15:36:26;22.70;99.90
20246;DHT22;10281;54.406;18.556;2022-07-23T15:38:52;23.00;99.90
20246;DHT22;10281;54.406;18.556;2022-07-23T15:53:33;23.50;99.90
20246;DHT22;10281;54.406;18.556;2022-07-23T15:58:28;23.80;99.90
20246;DHT22;10281;54.406;18.556;2022-07-23T16:03:22;23.50;99.90
20246;DHT22;10281;54.406;18.556;2022-07-23T16:05:49;23.50;99.90
20246;DHT22;10281;54.406;18.556;2022-07-23T16:08:16;23.50;99.90
20246;DHT22;10281;54.406;18.556;2022-07-23T16:10:42;23.10;99.90
20246;DHT22;10281;54.406;18.556;2022-07-23T16:13:09;22.70;99.90
20246;DHT22;10281;54.406;18.556;2022-07-23T16:15:36;22.60;99.90
20246;DHT22;10281;54.406;18.556;2022-07-23T16:18:03;22.80;99.90
20246;DHT22;10281;54.406;18.556;2022-07-23T16:20:29;22.80;99.90
20246;DHT22;10281;54.406;18.556;2022-07-23T16:22:56;22.40;99.90
20246;DHT22;10281;54.406;18.556;2022-07-23T16:25:23;22.60;99.90
20246;DHT22;10281;54.406;18.556;2022-07-23T16:27:50;22.40;99.90
20246;DHT22;10281;54.406;18.556;2022-07-23T16:30:16;22.70;99.90
20246;DHT22;10281;54.406;18.556;2022-07-23T16:32:43;22.60;99.90
20246;DHT22;10281;54.406;18.556;2022-07-23T16:35:10;22.70;99.90
20246;DHT22;10281;54.406;18.556;2022-07-23T16:42:33;22.60;99.90
20246;DHT22;10281;54.406;18.556;2022-07-23T16:45:00;22.30;99.90
20246;DHT22;10281;54.406;18.556;2022-07-23T16:47:26;22.30;99.90
20246;DHT22;10281;54.406;18.556;2022-07-23T16:49:53;22.20;99.90
20246;DHT22;10281;54.406;18.556;2022-07-23T16:52:20;22.20;99.90
20246;DHT22;10281;54.406;18.556;2022-07-23T16:54:47;21.90;99.90
20246;DHT22;10281;54.406;18.556;2022-07-23T16:59:41;21.90;99.90
20246;DHT22;10281;54.406;18.556;2022-07-23T17:02:08;21.90;99.90
20246;DHT22;10281;54.406;18.556;2022-07-23T17:04:36;21.90;99.90